Terminal Aerodrome Forecast
Issued by NWS

Home | Current Version | Previous Version | Graphics & Text | Print | Product List | Glossary On
Versions: 1 2 3 4 5 6 7 8 9 10 11 12 13 14 15 16 17 18
000
FTUS43 KABR 200523
TAFPIR
TAF
KPIR 200523Z 2006/2106 15008KT P6SM SCT250
     FM201600 17019G27KT P6SM BKN250
     FM210100 16012KT P6SM BKN250=

USA.gov is the U.S. government's official web portal to all federal, state and local government web resources and services.